Aviation Digital Data Service (ADDS)

Output produced by METARs form (2233 UTC 30 March 2017)
found at http://www.aviationweather.gov/adds/metars/
 
TAF MWCB 301700Z 3018/3118 09010KT 9999 FEW022
       
TAF MWCR 302300Z 3000/3024 13006KT 9999 FEW020